createdAt,value
2023-05-08T00:00:55.119Z,69.60
2023-05-08T00:04:11.272Z,77.09
2023-05-08T00:06:51.299Z,72.20
2023-05-08T00:09:39.307Z,73.25
2023-05-08T00:12:32.519Z,71.06
2023-05-08T00:19:39.631Z,76.61
2023-05-08T00:22:10.880Z,78.73
2023-05-08T00:24:56.144Z,72.38
2023-05-08T00:28:10.198Z,68.26
2023-05-08T00:31:04.244Z,76.90
2023-05-08T00:34:00.202Z,77.91
2023-05-08T00:37:05.219Z,72.67
2023-05-08T00:39:43.429Z,73.17
2023-05-08T00:42:27.178Z,66.99
2023-05-08T00:45:10.265Z,66.98
2023-05-08T00:48:05.112Z,63.63
2023-05-08T00:50:36.024Z,63.26
2023-05-08T00:53:21.334Z,61.87
2023-05-08T00:56:00.423Z,67.60
2023-05-08T00:58:56.105Z,66.09
2023-05-08T01:01:27.084Z,63.69
2023-05-08T01:04:06.834Z,64.72
2023-05-08T01:06:39.704Z,62.15
2023-05-08T01:09:09.964Z,67.41
2023-05-08T01:11:49.227Z,74.01
2023-05-08T01:14:54.001Z,66.50
2023-05-08T01:17:39.323Z,65.55
2023-05-08T01:20:35.620Z,62.79
2023-05-08T01:23:23.325Z,64.32
2023-05-08T01:25:55.039Z,67.48
2023-05-08T01:28:36.109Z,65.39
2023-05-08T01:31:48.840Z,64.18
2023-05-08T01:34:59.492Z,62.77
2023-05-08T01:37:47.422Z,63.50
2023-05-08T01:40:43.093Z,55.97
2023-05-08T01:43:26.467Z,60.87
2023-05-08T01:45:57.673Z,58.18
2023-05-08T01:48:37.104Z,55.33
2023-05-08T01:51:20.762Z,57.80
2023-05-08T01:54:02.148Z,59.22
2023-05-08T01:56:32.272Z,60.62
2023-05-08T01:59:03.682Z,62.69
2023-05-08T02:01:35.402Z,63.31
2023-05-08T02:04:07.379Z,60.85
2023-05-08T02:06:40.082Z,61.42
2023-05-08T02:09:12.135Z,64.04
2023-05-08T02:11:44.188Z,68.13
2023-05-08T02:14:16.045Z,71.84
2023-05-08T02:16:46.864Z,85.58
2023-05-08T02:19:18.326Z,65.92
2023-05-08T02:21:49.496Z,65.73
2023-05-08T02:24:19.197Z,70.28
2023-05-08T02:26:49.735Z,68.00
2023-05-08T02:29:20.333Z,72.29
2023-05-08T02:31:50.939Z,78.90
2023-05-08T02:34:25.589Z,75.22
2023-05-08T02:36:56.132Z,83.26
2023-05-08T02:39:30.111Z,90.25
2023-05-08T02:42:00.456Z,91.10
2023-05-08T02:44:30.302Z,92.23
2023-05-08T02:47:10.246Z,90.87
2023-05-08T02:50:08.433Z,89.70
2023-05-08T02:52:50.212Z,88.77
2023-05-08T02:55:50.152Z,93.30
2023-05-08T02:58:26.307Z,100.00
2023-05-08T03:01:09.361Z,100.00
2023-05-08T03:03:46.445Z,100.00
2023-05-08T03:06:20.551Z,100.00
2023-05-08T03:08:56.151Z,100.00
2023-05-08T03:11:38.574Z,100.00
2023-05-08T03:14:15.631Z,100.00
2023-05-08T03:16:59.838Z,100.00
2023-05-08T03:19:36.051Z,100.00
2023-05-08T03:22:12.635Z,100.00
2023-05-08T03:24:50.342Z,100.00
2023-05-08T03:27:21.379Z,100.00
2023-05-08T03:29:53.235Z,100.00
2023-05-08T03:32:25.733Z,100.00
2023-05-08T03:34:56.953Z,100.00
2023-05-08T03:37:31.060Z,100.00
2023-05-08T03:40:00.812Z,100.00
2023-05-08T03:42:33.242Z,100.00
2023-05-08T03:45:07.788Z,100.00
2023-05-08T03:47:51.818Z,100.00
2023-05-08T03:50:53.410Z,100.00
2023-05-08T03:53:36.822Z,100.00
2023-05-08T03:56:06.822Z,100.00
2023-05-08T03:59:11.680Z,100.00
2023-05-08T04:02:11.067Z,100.00
2023-05-08T04:04:47.663Z,100.00
2023-05-08T04:07:48.457Z,100.00
2023-05-08T04:10:33.819Z,100.00
2023-05-08T04:13:17.174Z,100.00
2023-05-08T04:16:02.208Z,100.00
2023-05-08T04:18:33.858Z,100.00
2023-05-08T04:21:09.683Z,100.00
2023-05-08T04:23:42.195Z,100.00
2023-05-08T04:26:15.915Z,100.00
2023-05-08T04:28:47.855Z,100.00
2023-05-08T04:31:23.407Z,100.00
2023-05-08T04:33:56.453Z,100.00
2023-05-08T04:36:27.310Z,100.00
2023-05-08T04:38:57.724Z,100.00
2023-05-08T04:41:28.394Z,100.00
2023-05-08T04:43:58.337Z,100.00
2023-05-08T04:46:30.667Z,100.00
2023-05-08T04:49:00.328Z,100.00
2023-05-08T04:51:35.336Z,100.00
2023-05-08T04:54:04.871Z,100.00
2023-05-08T04:56:34.252Z,100.00
2023-05-08T04:59:03.694Z,100.00
2023-05-08T05:01:33.314Z,100.00
2023-05-08T05:04:02.952Z,100.00
2023-05-08T05:06:32.620Z,100.00
2023-05-08T05:09:01.871Z,100.00
2023-05-08T05:11:31.453Z,100.00
2023-05-08T05:14:00.877Z,100.00
2023-05-08T05:16:30.501Z,100.00
2023-05-08T05:18:59.820Z,100.00
2023-05-08T05:21:29.518Z,100.00
2023-05-08T05:24:00.279Z,100.00
2023-05-08T05:26:30.444Z,100.00
2023-05-08T05:29:00.309Z,100.00
2023-05-08T05:31:30.866Z,100.00
2023-05-08T05:34:00.417Z,100.00
2023-05-08T05:36:30.295Z,100.00
2023-05-08T05:38:59.635Z,100.00
2023-05-08T05:41:31.387Z,100.00
2023-05-08T05:44:01.217Z,100.00
2023-05-08T05:46:33.359Z,100.00
2023-05-08T05:49:05.009Z,100.00
2023-05-08T05:51:35.438Z,100.00
2023-05-08T05:54:04.917Z,100.00
2023-05-08T05:56:34.099Z,100.00
2023-05-08T05:59:03.582Z,100.00
2023-05-08T06:01:32.972Z,100.00
2023-05-08T06:04:02.342Z,100.00
2023-05-08T06:06:32.868Z,100.00
2023-05-08T06:09:04.088Z,100.00
2023-05-08T06:11:33.372Z,100.00
2023-05-08T06:14:02.897Z,100.00
2023-05-08T06:16:33.045Z,100.00
2023-05-08T06:19:02.344Z,100.00
2023-05-08T06:21:31.688Z,100.00
2023-05-08T06:24:01.033Z,100.00
2023-05-08T06:26:30.307Z,100.00
2023-05-08T06:28:59.538Z,100.00
2023-05-08T06:31:30.171Z,100.00
2023-05-08T06:33:59.531Z,100.00
2023-05-08T06:36:28.660Z,100.00
2023-05-08T06:38:58.004Z,100.00
2023-05-08T06:41:27.711Z,100.00
2023-05-08T06:43:56.876Z,100.00
2023-05-08T06:46:27.057Z,100.00
2023-05-08T06:48:56.268Z,100.00
2023-05-08T06:51:25.414Z,100.00
2023-05-08T06:53:54.640Z,100.00
2023-05-08T06:56:23.845Z,100.00
2023-05-08T06:59:04.501Z,100.00
2023-05-08T07:01:38.313Z,100.00
2023-05-08T07:04:07.760Z,100.00
2023-05-08T07:06:37.101Z,100.00
2023-05-08T07:09:06.415Z,100.00
2023-05-08T07:11:35.592Z,100.00
2023-05-08T07:14:05.213Z,100.00
2023-05-08T07:16:34.680Z,100.00
2023-05-08T07:19:04.102Z,100.00
2023-05-08T07:21:33.388Z,100.00
2023-05-08T07:24:02.693Z,100.00
2023-05-08T07:26:31.852Z,100.00
2023-05-08T07:29:00.994Z,100.00
2023-05-08T07:31:30.366Z,100.00
2023-05-08T07:33:59.729Z,100.00
2023-05-08T07:36:29.287Z,100.00
2023-05-08T07:38:58.657Z,100.00
2023-05-08T07:41:28.012Z,100.00
2023-05-08T07:43:57.411Z,100.00
2023-05-08T07:46:27.037Z,100.00
2023-05-08T07:48:56.622Z,100.00
2023-05-08T07:51:26.014Z,100.00
2023-05-08T07:53:55.976Z,100.00
2023-05-08T07:56:25.352Z,100.00
2023-05-08T07:58:54.708Z,100.00
2023-05-08T08:01:23.883Z,100.00
2023-05-08T08:03:53.165Z,100.00
2023-05-08T08:06:22.467Z,100.00
2023-05-08T08:08:51.620Z,100.00
2023-05-08T08:11:21.156Z,100.00
2023-05-08T08:13:50.297Z,100.00
2023-05-08T08:16:19.574Z,100.00
2023-05-08T08:18:49.794Z,100.00
2023-05-08T08:21:18.938Z,100.00
2023-05-08T08:23:48.159Z,100.00
2023-05-08T08:26:17.406Z,100.00
2023-05-08T08:28:46.914Z,100.00
2023-05-08T08:31:17.323Z,100.00
2023-05-08T08:33:47.579Z,100.00
2023-05-08T08:36:17.432Z,100.00
2023-05-08T08:38:46.733Z,100.00
2023-05-08T08:41:16.469Z,100.00
2023-05-08T08:43:45.651Z,100.00
2023-05-08T08:46:16.164Z,100.00
2023-05-08T08:48:47.922Z,100.00
2023-05-08T08:51:26.553Z,100.00
2023-05-08T08:54:06.228Z,100.00
2023-05-08T08:56:37.382Z,100.00
2023-05-08T08:59:07.507Z,100.00
2023-05-08T09:01:40.385Z,100.00
2023-05-08T09:04:09.957Z,100.00
2023-05-08T09:06:41.996Z,100.00
2023-05-08T09:09:14.797Z,100.00
2023-05-08T09:11:47.432Z,100.00
2023-05-08T09:14:16.600Z,100.00
2023-05-08T09:16:48.653Z,100.00
2023-05-08T09:19:18.294Z,100.00
2023-05-08T09:21:47.734Z,100.00
2023-05-08T09:24:16.966Z,100.00
2023-05-08T09:26:46.146Z,100.00
2023-05-08T09:29:16.773Z,100.00
2023-05-08T09:31:48.333Z,100.00
2023-05-08T09:34:34.265Z,100.00
2023-05-08T09:37:06.647Z,100.00
2023-05-08T09:39:36.070Z,100.00
2023-05-08T09:42:06.859Z,100.00
2023-05-08T09:45:02.266Z,100.00
2023-05-08T09:47:32.065Z,100.00
2023-05-08T09:50:12.565Z,100.00
2023-05-08T09:52:49.558Z,100.00
2023-05-08T09:55:19.365Z,100.00
2023-05-08T09:57:58.083Z,100.00
2023-05-08T10:00:29.060Z,100.00
2023-05-08T10:02:59.816Z,100.00
2023-05-08T10:05:36.669Z,100.00
2023-05-08T10:08:21.992Z,100.00
2023-05-08T10:10:51.627Z,100.00
2023-05-08T10:13:20.839Z,100.00
2023-05-08T10:15:54.453Z,100.00
2023-05-08T10:18:31.132Z,100.00
2023-05-08T10:21:02.559Z,100.00
2023-05-08T10:23:34.275Z,100.00
2023-05-08T10:26:13.455Z,100.00
2023-05-08T10:28:45.946Z,100.00
2023-05-08T10:31:19.499Z,100.00
2023-05-08T10:33:53.187Z,100.00
2023-05-08T10:36:26.254Z,100.00
2023-05-08T10:38:56.199Z,100.00
2023-05-08T10:41:25.677Z,100.00
2023-05-08T10:43:55.631Z,100.00
2023-05-08T10:46:52.569Z,100.00
2023-05-08T10:49:42.262Z,100.00
2023-05-08T10:52:20.188Z,100.00
2023-05-08T10:54:55.411Z,100.00
2023-05-08T10:57:24.597Z,100.00
2023-05-08T10:59:53.786Z,100.00
2023-05-08T11:02:31.109Z,100.00
2023-05-08T11:05:21.314Z,100.00
2023-05-08T11:08:20.331Z,100.00
2023-05-08T11:11:02.626Z,100.00
2023-05-08T11:13:49.574Z,100.00
2023-05-08T11:16:19.117Z,100.00
2023-05-08T11:19:19.274Z,100.00
2023-05-08T11:22:14.475Z,100.00
2023-05-08T11:24:56.934Z,100.00
2023-05-08T11:27:52.038Z,100.00
2023-05-08T11:30:27.613Z,100.00
2023-05-08T11:33:06.311Z,100.00
2023-05-08T11:35:49.030Z,100.00
2023-05-08T11:38:36.731Z,100.00
2023-05-08T11:41:22.565Z,100.00
2023-05-08T11:44:10.858Z,100.00
2023-05-08T11:46:59.649Z,100.00
2023-05-08T11:49:30.819Z,100.00
2023-05-08T11:52:01.140Z,100.00
2023-05-08T11:54:32.442Z,100.00
2023-05-08T11:57:02.603Z,100.00
2023-05-08T11:59:37.772Z,100.00
2023-05-08T12:02:09.598Z,100.00
2023-05-08T12:04:47.474Z,100.00
2023-05-08T12:07:17.342Z,100.00
2023-05-08T12:09:48.180Z,100.00
2023-05-08T12:12:17.441Z,100.00
2023-05-08T12:14:52.037Z,100.00
2023-05-08T12:17:21.484Z,100.00
2023-05-08T12:19:55.411Z,100.00
2023-05-08T12:22:24.875Z,100.00
2023-05-08T12:24:54.174Z,100.00
2023-05-08T12:27:23.380Z,100.00
2023-05-08T12:29:52.647Z,100.00
2023-05-08T12:32:22.023Z,100.00
2023-05-08T12:34:51.645Z,100.00
2023-05-08T12:37:30.569Z,100.00
2023-05-08T12:39:59.875Z,100.00
2023-05-08T12:42:52.011Z,100.00
2023-05-08T12:45:23.304Z,100.00
2023-05-08T12:47:54.287Z,100.00
2023-05-08T12:50:23.894Z,100.00
2023-05-08T12:52:53.640Z,100.00
2023-05-08T12:55:30.983Z,100.00
2023-05-08T12:58:06.137Z,100.00
2023-05-08T13:00:48.269Z,100.00
2023-05-08T13:03:32.622Z,100.00
2023-05-08T13:06:02.188Z,100.00
2023-05-08T13:08:39.450Z,100.00
2023-05-08T13:11:08.996Z,100.00
2023-05-08T13:13:38.759Z,100.00
2023-05-08T13:16:09.468Z,100.00
2023-05-08T13:18:38.882Z,100.00
2023-05-08T13:21:09.274Z,100.00
2023-05-08T13:23:38.498Z,100.00
2023-05-08T13:26:07.645Z,100.00
2023-05-08T13:28:37.226Z,100.00
2023-05-08T13:31:06.514Z,100.00
2023-05-08T13:33:39.371Z,100.00
2023-05-08T13:36:09.381Z,100.00
2023-05-08T13:38:38.608Z,100.00
2023-05-08T13:41:07.762Z,100.00
2023-05-08T13:43:39.165Z,100.00
2023-05-08T13:46:08.431Z,100.00
2023-05-08T13:48:37.648Z,100.00
2023-05-08T13:51:06.960Z,100.00
2023-05-08T13:53:36.303Z,100.00
2023-05-08T13:56:06.216Z,100.00
2023-05-08T13:58:35.465Z,100.00
2023-05-08T14:01:17.554Z,100.00
2023-05-08T14:03:54.411Z,100.00
2023-05-08T14:06:23.989Z,100.00
2023-05-08T14:08:55.478Z,100.00
2023-05-08T14:11:26.442Z,100.00
2023-05-08T14:13:55.630Z,100.00
2023-05-08T14:16:24.906Z,100.00
2023-05-08T14:18:54.148Z,100.00
2023-05-08T14:21:23.256Z,100.00
2023-05-08T14:23:52.559Z,100.00
2023-05-08T14:26:22.399Z,100.00
2023-05-08T14:28:52.854Z,100.00
2023-05-08T14:31:22.001Z,100.00
2023-05-08T14:33:51.239Z,100.00
2023-05-08T14:36:20.413Z,100.00
2023-05-08T14:38:49.570Z,100.00
2023-05-08T14:41:18.764Z,100.00
2023-05-08T14:43:50.439Z,100.00
2023-05-08T14:46:19.651Z,100.00
2023-05-08T14:48:49.590Z,100.00
2023-05-08T14:51:20.263Z,100.00
2023-05-08T14:53:49.769Z,100.00
2023-05-08T14:56:19.347Z,100.00
2023-05-08T14:58:52.423Z,100.00
2023-05-08T15:01:23.047Z,100.00
2023-05-08T15:03:54.195Z,100.00
2023-05-08T15:06:26.163Z,100.00
2023-05-08T15:08:55.507Z,100.00
2023-05-08T15:11:24.636Z,100.00
2023-05-08T15:13:54.005Z,100.00
2023-05-08T15:16:23.459Z,100.00
2023-05-08T15:18:52.618Z,100.00
2023-05-08T15:21:26.994Z,100.00
2023-05-08T15:23:57.118Z,100.00
2023-05-08T15:26:26.567Z,100.00
2023-05-08T15:28:55.784Z,100.00
2023-05-08T15:31:25.017Z,100.00
2023-05-08T15:33:54.207Z,100.00
2023-05-08T15:36:23.858Z,100.00
2023-05-08T15:38:54.974Z,100.00
2023-05-08T15:41:24.200Z,100.00
2023-05-08T15:43:53.331Z,100.00
2023-05-08T15:46:23.238Z,100.00
2023-05-08T15:48:52.601Z,100.00
2023-05-08T15:51:21.761Z,100.00
2023-05-08T15:53:53.065Z,100.00
2023-05-08T15:56:25.578Z,100.00
2023-05-08T15:58:55.126Z,100.00
2023-05-08T16:01:25.049Z,100.00
2023-05-08T16:03:54.569Z,100.00
2023-05-08T16:06:23.873Z,100.00
2023-05-08T16:08:53.947Z,100.00
2023-05-08T16:11:23.476Z,100.00
2023-05-08T16:13:53.461Z,100.00
2023-05-08T16:16:26.992Z,100.00
2023-05-08T16:18:56.730Z,100.00
2023-05-08T16:21:31.192Z,100.00
2023-05-08T16:24:04.015Z,100.00
2023-05-08T16:26:33.399Z,100.00
2023-05-08T16:29:02.745Z,100.00
2023-05-08T16:31:31.995Z,100.00
2023-05-08T16:34:02.110Z,100.00
2023-05-08T16:36:34.420Z,100.00
2023-05-08T16:39:04.046Z,100.00
2023-05-08T16:41:34.031Z,100.00
2023-05-08T16:44:03.442Z,100.00
2023-05-08T16:46:32.737Z,100.00
2023-05-08T16:49:02.573Z,100.00
2023-05-08T16:51:33.294Z,100.00
2023-05-08T16:54:03.228Z,100.00
2023-05-08T16:56:35.978Z,100.00
2023-05-08T16:59:07.511Z,100.00
2023-05-08T17:01:36.793Z,100.00
2023-05-08T17:04:05.886Z,100.00
2023-05-08T17:06:34.917Z,100.00
2023-05-08T17:09:04.042Z,100.00
2023-05-08T17:11:36.545Z,100.00
2023-05-08T17:14:05.729Z,100.00
2023-05-08T17:16:34.969Z,100.00
2023-05-08T17:19:13.540Z,100.00
2023-05-08T17:21:42.746Z,100.00
2023-05-08T17:24:14.615Z,100.00
2023-05-08T17:26:44.406Z,100.00
2023-05-08T17:29:13.493Z,100.00
2023-05-08T17:31:42.588Z,100.00
2023-05-08T17:34:11.710Z,100.00
2023-05-08T17:36:40.591Z,100.00
2023-05-08T17:39:12.659Z,100.00
2023-05-08T17:41:41.669Z,100.00
2023-05-08T17:44:10.645Z,100.00
2023-05-08T17:46:39.735Z,100.00
2023-05-08T17:49:08.828Z,100.00
2023-05-08T17:51:37.873Z,100.00
2023-05-08T17:54:07.722Z,100.00
2023-05-08T17:56:37.425Z,100.00
2023-05-08T17:59:06.799Z,100.00
2023-05-08T18:01:35.733Z,100.00
2023-05-08T18:04:05.125Z,100.00
2023-05-08T18:06:34.143Z,100.00
2023-05-08T18:09:03.284Z,100.00
2023-05-08T18:11:32.367Z,100.00
2023-05-08T18:14:01.336Z,100.00
2023-05-08T18:16:30.423Z,100.00
2023-05-08T18:18:59.417Z,100.00
2023-05-08T18:21:29.657Z,100.00
2023-05-08T18:23:58.584Z,100.00
2023-05-08T18:26:27.497Z,100.00
2023-05-08T18:28:56.964Z,100.00
2023-05-08T18:31:29.031Z,100.00
2023-05-08T18:33:57.992Z,100.00
2023-05-08T18:36:27.255Z,100.00
2023-05-08T18:38:56.356Z,100.00
2023-05-08T18:41:25.254Z,100.00
2023-05-08T18:43:54.371Z,100.00
2023-05-08T18:46:23.482Z,100.00
2023-05-08T18:48:52.372Z,100.00
2023-05-08T18:51:21.572Z,100.00
2023-05-08T18:53:50.464Z,100.00
2023-05-08T18:56:20.425Z,100.00
2023-05-08T18:58:50.010Z,100.00
2023-05-08T19:01:20.719Z,100.00
2023-05-08T19:03:49.672Z,100.00
2023-05-08T19:06:18.842Z,100.00
2023-05-08T19:08:48.328Z,100.00
2023-05-08T19:11:17.820Z,100.00
2023-05-08T19:13:46.778Z,100.00
2023-05-08T19:16:15.871Z,100.00
2023-05-08T19:18:44.841Z,100.00
2023-05-08T19:21:13.939Z,100.00
2023-05-08T19:23:42.939Z,100.00
2023-05-08T19:26:12.948Z,100.00
2023-05-08T19:28:42.064Z,100.00
2023-05-08T19:31:11.051Z,100.00
2023-05-08T19:33:40.062Z,100.00
2023-05-08T19:36:09.038Z,100.00
2023-05-08T19:38:40.833Z,100.00
2023-05-08T19:41:10.066Z,100.00
2023-05-08T19:43:47.690Z,100.00
2023-05-08T19:46:20.550Z,100.00
2023-05-08T19:48:49.490Z,100.00
2023-05-08T19:51:18.773Z,100.00
2023-05-08T19:53:47.732Z,100.00
2023-05-08T19:56:16.760Z,99.02
2023-05-08T19:58:45.700Z,96.61
2023-05-08T20:01:15.051Z,100.00
2023-05-08T20:03:44.179Z,100.00
2023-05-08T20:06:13.375Z,100.00
2023-05-08T20:08:42.418Z,100.00
2023-05-08T20:11:12.581Z,100.00
2023-05-08T20:13:41.712Z,100.00
2023-05-08T20:16:10.658Z,100.00
2023-05-08T20:18:40.007Z,100.00
2023-05-08T20:21:09.042Z,100.00
2023-05-08T20:23:39.771Z,97.45
2023-05-08T20:26:09.540Z,96.71
2023-05-08T20:28:38.648Z,91.83
2023-05-08T20:31:08.378Z,90.08
2023-05-08T20:33:37.612Z,86.88
2023-05-08T20:36:06.723Z,80.37
2023-05-08T20:38:37.588Z,86.04
2023-05-08T20:41:06.809Z,85.78
2023-05-08T20:43:35.677Z,78.72
2023-05-08T20:46:04.755Z,76.28
2023-05-08T20:48:33.761Z,83.67
2023-05-08T20:51:02.951Z,82.62
2023-05-08T20:53:32.891Z,82.41
2023-05-08T20:56:06.202Z,88.88
2023-05-08T20:58:35.794Z,85.28
2023-05-08T21:01:04.981Z,86.55
2023-05-08T21:03:34.674Z,82.98
2023-05-08T21:06:04.395Z,81.48
2023-05-08T21:08:33.418Z,75.13
2023-05-08T21:11:03.063Z,72.10
2023-05-08T21:13:32.864Z,79.34
2023-05-08T21:16:01.837Z,78.47
2023-05-08T21:18:30.783Z,79.41
2023-05-08T21:20:59.747Z,74.25
2023-05-08T21:23:30.938Z,74.85
2023-05-08T21:25:59.974Z,74.87
2023-05-08T21:28:29.074Z,75.15
2023-05-08T21:30:58.782Z,87.29
2023-05-08T21:33:27.737Z,90.48
2023-05-08T21:35:56.803Z,86.28
2023-05-08T21:38:25.921Z,87.84
2023-05-08T21:40:54.859Z,87.16
2023-05-08T21:43:23.934Z,89.45
2023-05-08T21:45:53.607Z,87.93
2023-05-08T21:48:23.780Z,91.21
2023-05-08T21:50:52.848Z,93.41
2023-05-08T21:53:21.773Z,97.26
2023-05-08T21:55:50.700Z,100.00
2023-05-08T21:58:19.683Z,100.00
2023-05-08T22:00:48.903Z,100.00
2023-05-08T22:03:17.928Z,100.00
2023-05-08T22:05:48.224Z,100.00
2023-05-08T22:08:17.331Z,100.00
2023-05-08T22:10:47.098Z,100.00
2023-05-08T22:13:16.120Z,100.00
2023-05-08T22:15:45.149Z,100.00
2023-05-08T22:18:15.143Z,100.00
2023-05-08T22:20:44.191Z,100.00
2023-05-08T22:23:13.084Z,100.00
2023-05-08T22:25:42.068Z,100.00
2023-05-08T22:28:11.347Z,100.00
2023-05-08T22:30:40.317Z,100.00
2023-05-08T22:33:09.281Z,100.00
2023-05-08T22:35:38.425Z,100.00
2023-05-08T22:38:07.440Z,100.00
2023-05-08T22:40:37.037Z,100.00
2023-05-08T22:43:06.454Z,100.00
2023-05-08T22:45:35.878Z,100.00
2023-05-08T22:48:05.278Z,100.00
2023-05-08T22:50:34.261Z,100.00
2023-05-08T22:53:08.695Z,100.00
2023-05-08T22:55:38.383Z,100.00
2023-05-08T22:58:07.809Z,100.00
2023-05-08T23:00:36.958Z,100.00
2023-05-08T23:03:06.072Z,91.91
2023-05-08T23:05:35.209Z,100.00
2023-05-08T23:08:04.556Z,100.00
2023-05-08T23:10:33.630Z,96.77
2023-05-08T23:13:05.072Z,100.00
2023-05-08T23:15:34.076Z,97.21
2023-05-08T23:18:03.336Z,89.10
2023-05-08T23:20:32.389Z,99.78
2023-05-08T23:23:01.341Z,93.48
2023-05-08T23:25:30.254Z,83.83
2023-05-08T23:27:59.268Z,84.00
2023-05-08T23:30:28.440Z,85.40
2023-05-08T23:32:57.422Z,78.23
2023-05-08T23:35:26.549Z,76.65
2023-05-08T23:37:55.505Z,80.18
2023-05-08T23:40:24.604Z,78.58
2023-05-08T23:42:53.675Z,79.95
2023-05-08T23:45:23.130Z,85.27
2023-05-08T23:47:52.505Z,87.26
2023-05-08T23:50:21.665Z,78.55
2023-05-08T23:52:50.616Z,80.75
2023-05-08T23:55:19.619Z,73.50
2023-05-08T23:57:48.622Z,73.35
